createdAt,value
2023-03-02T00:01:26.846Z,11.10
2023-03-02T00:03:54.209Z,12.90
2023-03-02T00:06:21.145Z,10.93
2023-03-02T00:08:47.958Z,9.88
2023-03-02T00:11:15.634Z,10.20
2023-03-02T00:13:44.082Z,9.82
2023-03-02T00:16:11.341Z,10.73
2023-03-02T00:18:38.152Z,10.60
2023-03-02T00:21:05.055Z,10.45
2023-03-02T00:23:31.822Z,10.65
2023-03-02T00:25:58.621Z,10.93
2023-03-02T00:28:25.484Z,9.60
2023-03-02T00:30:52.240Z,10.13
2023-03-02T00:33:20.873Z,10.63
2023-03-02T00:35:47.657Z,9.55
2023-03-02T00:38:14.832Z,10.38
2023-03-02T00:40:51.655Z,11.65
2023-03-02T00:43:18.484Z,11.23
2023-03-02T00:45:45.244Z,10.23
2023-03-02T00:48:12.078Z,10.57
2023-03-02T00:50:40.994Z,10.95
2023-03-02T00:53:09.144Z,10.65
2023-03-02T00:55:36.863Z,10.48
2023-03-02T00:58:04.763Z,10.30
2023-03-02T01:00:34.202Z,12.20
2023-03-02T01:03:01.035Z,13.93
2023-03-02T01:05:27.850Z,12.20
2023-03-02T01:07:54.613Z,13.35
2023-03-02T01:10:21.375Z,13.32
2023-03-02T01:12:48.137Z,16.05
2023-03-02T01:15:15.005Z,13.65
2023-03-02T01:17:43.853Z,14.70
2023-03-02T01:20:12.119Z,15.15
2023-03-02T01:22:39.098Z,13.95
2023-03-02T01:25:06.277Z,12.82
2023-03-02T01:27:33.016Z,12.27
2023-03-02T01:29:59.786Z,11.27
2023-03-02T01:32:26.700Z,10.50
2023-03-02T01:34:54.973Z,10.93
2023-03-02T01:37:22.953Z,10.93
2023-03-02T01:39:50.752Z,11.40
2023-03-02T01:42:18.070Z,11.38
2023-03-02T01:44:49.845Z,14.57
2023-03-02T01:47:22.880Z,13.98
2023-03-02T01:50:07.675Z,12.68
2023-03-02T01:52:38.290Z,12.18
2023-03-02T01:55:08.074Z,15.88
2023-03-02T01:57:43.458Z,13.55
2023-03-02T02:00:23.668Z,15.85
2023-03-02T02:02:53.388Z,13.75
2023-03-02T02:05:24.032Z,12.35
2023-03-02T02:07:50.865Z,11.77
2023-03-02T02:10:17.958Z,11.75
2023-03-02T02:12:44.703Z,11.35
2023-03-02T02:15:11.549Z,11.43
2023-03-02T02:17:38.341Z,10.60
2023-03-02T02:20:36.741Z,12.02
2023-03-02T02:23:24.064Z,10.10
2023-03-02T02:25:55.370Z,9.70
2023-03-02T02:28:28.115Z,11.00
2023-03-02T02:31:18.745Z,14.05
2023-03-02T02:33:49.362Z,13.18
2023-03-02T02:36:20.955Z,14.07
2023-03-02T02:38:51.755Z,13.77
2023-03-02T02:41:22.514Z,13.55
2023-03-02T02:43:49.849Z,13.07
2023-03-02T02:46:17.131Z,11.77
2023-03-02T02:48:43.995Z,11.57
2023-03-02T02:51:17.849Z,10.20
2023-03-02T02:53:50.667Z,11.40
2023-03-02T02:56:19.169Z,10.98
2023-03-02T02:58:50.863Z,10.10
2023-03-02T03:01:25.360Z,10.00
2023-03-02T03:03:56.311Z,11.50
2023-03-02T03:06:38.064Z,9.95
2023-03-02T03:09:06.731Z,13.55
2023-03-02T03:11:40.346Z,10.45
2023-03-02T03:14:19.783Z,9.25
2023-03-02T03:16:48.539Z,10.10
2023-03-02T03:19:24.755Z,10.15
2023-03-02T03:21:54.638Z,9.02
2023-03-02T03:24:21.680Z,11.13
2023-03-02T03:26:48.751Z,8.95
2023-03-02T03:29:16.102Z,9.90
2023-03-02T03:31:43.236Z,10.45
2023-03-02T03:34:10.104Z,12.02
2023-03-02T03:36:38.208Z,11.25
2023-03-02T03:39:06.086Z,10.43
2023-03-02T03:41:33.297Z,10.05
2023-03-02T03:44:00.263Z,11.13
2023-03-02T03:46:27.778Z,9.55
2023-03-02T03:48:54.653Z,9.82
2023-03-02T03:51:21.976Z,10.43
2023-03-02T03:53:59.890Z,9.23
2023-03-02T03:56:32.067Z,13.35
2023-03-02T03:59:06.801Z,11.82
2023-03-02T04:01:39.456Z,11.55
2023-03-02T04:04:09.038Z,10.95
2023-03-02T04:06:36.696Z,12.43
2023-03-02T04:09:05.209Z,11.32
2023-03-02T04:11:38.205Z,11.57
2023-03-02T04:14:06.235Z,11.77
2023-03-02T04:16:33.783Z,13.05
2023-03-02T04:19:01.158Z,11.48
2023-03-02T04:21:28.270Z,11.65
2023-03-02T04:23:55.135Z,10.60
2023-03-02T04:26:21.940Z,11.35
2023-03-02T04:28:50.841Z,12.07
2023-03-02T04:31:18.013Z,11.93
2023-03-02T04:33:45.278Z,10.18
2023-03-02T04:36:12.206Z,9.90
2023-03-02T04:38:39.128Z,10.50
2023-03-02T04:41:06.118Z,11.95
2023-03-02T04:43:33.126Z,11.95
2023-03-02T04:46:00.039Z,11.98
2023-03-02T04:48:27.048Z,10.75
2023-03-02T04:50:53.901Z,11.60
2023-03-02T04:53:20.793Z,13.05
2023-03-02T04:55:47.838Z,11.38
2023-03-02T04:58:14.617Z,13.35
2023-03-02T05:00:41.598Z,11.70
2023-03-02T05:03:08.469Z,11.45
2023-03-02T05:05:35.305Z,12.48
2023-03-02T05:08:02.231Z,10.75
2023-03-02T05:10:29.537Z,12.43
2023-03-02T05:13:02.690Z,11.15
2023-03-02T05:15:35.655Z,11.40
2023-03-02T05:18:03.824Z,10.75
2023-03-02T05:20:31.644Z,11.20
2023-03-02T05:23:01.542Z,12.82
2023-03-02T05:25:31.095Z,14.77
2023-03-02T05:27:58.419Z,13.38
2023-03-02T05:30:25.992Z,13.88
2023-03-02T05:32:53.726Z,12.35
2023-03-02T05:35:22.567Z,13.23
2023-03-02T05:37:49.901Z,14.63
2023-03-02T05:40:19.567Z,13.43
2023-03-02T05:42:46.636Z,14.00
2023-03-02T05:45:26.324Z,15.02
2023-03-02T05:47:53.773Z,14.20
2023-03-02T05:50:21.159Z,14.73
2023-03-02T05:52:48.381Z,12.63
2023-03-02T05:55:16.622Z,11.38
2023-03-02T05:57:43.911Z,13.23
2023-03-02T06:00:12.992Z,12.73
2023-03-02T06:02:40.635Z,12.27
2023-03-02T06:05:12.506Z,11.40
2023-03-02T06:07:39.644Z,11.57
2023-03-02T06:10:08.237Z,12.27
2023-03-02T06:12:36.408Z,11.93
2023-03-02T06:15:05.252Z,10.40
2023-03-02T06:17:32.302Z,11.20
2023-03-02T06:19:59.411Z,11.40
2023-03-02T06:22:26.829Z,11.88
2023-03-02T06:24:55.230Z,10.23
2023-03-02T06:27:22.059Z,10.88
2023-03-02T06:29:49.306Z,8.50
2023-03-02T06:32:16.204Z,9.00
2023-03-02T06:34:43.082Z,11.77
2023-03-02T06:37:10.470Z,10.00
2023-03-02T06:39:37.294Z,9.95
2023-03-02T06:42:04.206Z,12.00
2023-03-02T06:44:31.056Z,10.48
2023-03-02T06:46:57.862Z,11.23
2023-03-02T06:49:24.859Z,10.38
2023-03-02T06:51:51.675Z,11.40
2023-03-02T06:54:18.430Z,9.77
2023-03-02T06:56:45.193Z,10.95
2023-03-02T06:59:12.087Z,13.07
2023-03-02T07:01:38.920Z,11.18
2023-03-02T07:04:05.836Z,12.57
2023-03-02T07:06:32.741Z,14.98
2023-03-02T07:08:59.501Z,15.02
2023-03-02T07:11:26.296Z,18.73
2023-03-02T07:13:53.115Z,19.98
2023-03-02T07:16:19.897Z,29.88
2023-03-02T07:18:46.693Z,28.30
2023-03-02T07:21:13.472Z,29.70
2023-03-02T07:23:40.248Z,28.25
2023-03-02T07:26:08.605Z,27.55
2023-03-02T07:28:39.500Z,27.20
2023-03-02T07:31:06.735Z,24.08
2023-03-02T07:33:33.600Z,23.15
2023-03-02T07:36:00.861Z,21.23
2023-03-02T07:38:27.849Z,23.50
2023-03-02T07:40:54.765Z,21.45
2023-03-02T07:43:23.944Z,20.58
2023-03-02T07:45:51.089Z,18.45
2023-03-02T07:48:18.931Z,17.25
2023-03-02T07:50:46.268Z,19.13
2023-03-02T07:53:13.008Z,15.85
2023-03-02T07:55:42.791Z,17.75
2023-03-02T07:58:09.543Z,16.55
2023-03-02T08:00:36.710Z,16.17
2023-03-02T08:03:03.614Z,13.82
2023-03-02T08:05:30.892Z,15.77
2023-03-02T08:07:57.749Z,15.50
2023-03-02T08:10:24.598Z,12.90
2023-03-02T08:12:51.501Z,14.25
2023-03-02T08:15:18.392Z,13.85
2023-03-02T08:17:45.504Z,16.15
2023-03-02T08:20:12.609Z,13.15
2023-03-02T08:22:39.420Z,13.50
2023-03-02T08:25:07.276Z,14.38
2023-03-02T08:27:34.053Z,12.88
2023-03-02T08:30:00.795Z,14.27
2023-03-02T08:32:27.624Z,14.35
2023-03-02T08:34:54.514Z,13.48
2023-03-02T08:37:21.258Z,12.80
2023-03-02T08:39:48.424Z,12.25
2023-03-02T08:42:15.254Z,12.10
2023-03-02T08:44:41.993Z,12.57
2023-03-02T08:47:08.786Z,12.80
2023-03-02T08:49:37.860Z,13.52
2023-03-02T08:52:05.614Z,13.30
2023-03-02T08:54:34.484Z,12.90
2023-03-02T08:57:02.501Z,12.68
2023-03-02T08:59:29.437Z,14.57
2023-03-02T09:01:56.254Z,13.40
2023-03-02T09:04:23.114Z,15.15
2023-03-02T09:06:50.042Z,14.55
2023-03-02T09:09:16.803Z,14.02
2023-03-02T09:11:44.940Z,13.77
2023-03-02T09:14:12.036Z,14.40
2023-03-02T09:16:38.872Z,16.10
2023-03-02T09:19:05.818Z,12.35
2023-03-02T09:21:32.979Z,14.05
2023-03-02T09:23:59.912Z,12.80
2023-03-02T09:26:27.313Z,13.63
2023-03-02T09:28:54.865Z,16.13
2023-03-02T09:31:21.802Z,13.38
2023-03-02T09:33:48.805Z,13.48
2023-03-02T09:36:22.346Z,13.98
2023-03-02T09:38:49.416Z,13.95
2023-03-02T09:41:19.404Z,14.43
2023-03-02T09:43:59.995Z,14.18
2023-03-02T09:46:49.922Z,13.50
2023-03-02T09:49:32.126Z,16.10
2023-03-02T09:52:31.161Z,14.00
2023-03-02T09:55:21.214Z,12.27
2023-03-02T09:57:48.282Z,14.70
2023-03-02T10:00:19.942Z,14.65
2023-03-02T10:02:48.949Z,15.18
2023-03-02T10:05:21.420Z,15.85
2023-03-02T10:07:48.783Z,14.85
2023-03-02T10:10:18.520Z,14.63
2023-03-02T10:13:03.989Z,13.13
2023-03-02T10:15:47.798Z,13.73
2023-03-02T10:18:42.129Z,12.88
2023-03-02T10:21:21.453Z,16.40
2023-03-02T10:24:14.240Z,15.25
2023-03-02T10:26:42.764Z,12.98
2023-03-02T10:29:35.085Z,14.82
2023-03-02T10:32:18.330Z,13.10
2023-03-02T10:34:45.189Z,14.20
2023-03-02T10:37:21.697Z,13.32
2023-03-02T10:39:49.337Z,14.48
2023-03-02T10:42:40.292Z,13.75
2023-03-02T10:45:26.970Z,15.30
2023-03-02T10:48:04.449Z,13.52
2023-03-02T10:50:32.106Z,14.82
2023-03-02T10:53:01.076Z,12.85
2023-03-02T10:55:28.761Z,13.25
2023-03-02T10:58:07.531Z,13.88
2023-03-02T11:00:35.295Z,13.55
2023-03-02T11:03:06.345Z,14.95
2023-03-02T11:05:41.400Z,12.57
2023-03-02T11:08:18.598Z,12.10
2023-03-02T11:11:03.299Z,13.18
2023-03-02T11:13:38.885Z,14.50
2023-03-02T11:16:17.619Z,14.55
2023-03-02T11:19:12.917Z,12.27
2023-03-02T11:22:21.696Z,14.48
2023-03-02T11:24:54.103Z,16.00
2023-03-02T11:27:36.885Z,14.90
2023-03-02T11:30:22.730Z,13.15
2023-03-02T11:33:19.101Z,16.70
2023-03-02T11:35:54.509Z,12.07
2023-03-02T11:38:33.929Z,12.27
2023-03-02T11:41:05.499Z,12.30
2023-03-02T11:43:32.823Z,12.00
2023-03-02T11:46:13.797Z,10.70
2023-03-02T11:48:49.118Z,12.93
2023-03-02T11:51:23.955Z,12.70
2023-03-02T11:54:17.427Z,10.73
2023-03-02T11:56:44.526Z,12.85
2023-03-02T11:59:22.000Z,11.88
2023-03-02T12:01:52.659Z,12.55
2023-03-02T12:04:32.662Z,13.48
2023-03-02T12:07:02.045Z,15.48
2023-03-02T12:09:37.259Z,11.27
2023-03-02T12:12:32.576Z,13.00
2023-03-02T12:15:00.010Z,13.23
2023-03-02T12:17:26.794Z,12.93
2023-03-02T12:20:25.151Z,12.70
2023-03-02T12:22:52.169Z,14.35
2023-03-02T12:25:18.856Z,14.75
2023-03-02T12:27:50.462Z,15.07
2023-03-02T12:30:24.493Z,16.10
2023-03-02T12:33:11.617Z,12.55
2023-03-02T12:35:38.734Z,15.77
2023-03-02T12:38:31.018Z,15.50
2023-03-02T12:41:14.645Z,14.48
2023-03-02T12:43:58.382Z,15.52
2023-03-02T12:46:31.849Z,15.07
2023-03-02T12:49:24.387Z,19.70
2023-03-02T12:51:55.829Z,13.90
2023-03-02T12:54:25.969Z,14.00
2023-03-02T12:57:06.259Z,15.40
2023-03-02T12:59:33.091Z,15.68
2023-03-02T13:02:20.758Z,14.68
2023-03-02T13:05:02.475Z,12.13
2023-03-02T13:07:41.248Z,13.68
2023-03-02T13:10:33.492Z,14.63
2023-03-02T13:13:00.839Z,14.00
2023-03-02T13:15:28.172Z,16.38
2023-03-02T13:17:57.569Z,16.42
2023-03-02T13:20:29.818Z,15.95
2023-03-02T13:22:57.011Z,16.48
2023-03-02T13:25:29.952Z,14.63
2023-03-02T13:28:07.308Z,12.32
2023-03-02T13:30:37.058Z,14.38
2023-03-02T13:33:22.753Z,10.73
2023-03-02T13:35:49.766Z,12.23
2023-03-02T13:38:21.910Z,13.90
2023-03-02T13:40:51.608Z,13.48
2023-03-02T13:43:30.736Z,12.85
2023-03-02T13:46:07.005Z,14.30
2023-03-02T13:51:14.117Z,12.90
2023-03-02T13:53:45.886Z,12.80
2023-03-02T13:56:17.767Z,12.73
2023-03-02T13:58:46.031Z,12.27
2023-03-02T14:01:13.524Z,14.75
2023-03-02T14:03:40.493Z,13.57
2023-03-02T14:06:07.628Z,14.10
2023-03-02T14:08:34.837Z,11.48
2023-03-02T14:11:03.215Z,10.98
2023-03-02T14:13:56.640Z,10.82
2023-03-02T14:16:24.298Z,13.98
2023-03-02T14:18:52.684Z,10.98
2023-03-02T14:21:25.390Z,12.60
2023-03-02T14:23:53.854Z,10.40
2023-03-02T14:26:37.851Z,11.98
2023-03-02T14:29:16.649Z,10.10
2023-03-02T14:31:43.431Z,10.27
2023-03-02T14:34:14.887Z,8.88
2023-03-02T14:36:43.560Z,10.13
2023-03-02T14:39:22.733Z,12.40
2023-03-02T14:41:53.915Z,11.63
2023-03-02T14:44:21.870Z,9.40
2023-03-02T14:46:48.779Z,9.13
2023-03-02T14:49:15.671Z,11.32
2023-03-02T14:51:45.708Z,8.98
2023-03-02T14:54:18.971Z,8.93
2023-03-02T14:56:46.613Z,10.68
2023-03-02T14:59:14.428Z,9.55
2023-03-02T15:01:43.510Z,8.68
2023-03-02T15:04:10.442Z,8.23
2023-03-02T15:06:39.746Z,11.50
2023-03-02T15:09:07.982Z,11.30
2023-03-02T15:11:35.210Z,9.80
2023-03-02T15:14:02.198Z,8.85
2023-03-02T15:16:29.503Z,8.40
2023-03-02T15:18:58.825Z,12.43
2023-03-02T15:21:25.869Z,9.38
2023-03-02T15:23:52.736Z,7.72
2023-03-02T15:26:19.627Z,7.15
2023-03-02T15:28:50.169Z,8.90
2023-03-02T15:31:18.058Z,8.52
2023-03-02T15:33:47.689Z,9.82
2023-03-02T15:36:14.643Z,7.72
2023-03-02T15:38:41.543Z,10.38
2023-03-02T15:41:12.570Z,9.50
2023-03-02T15:43:39.905Z,8.48
2023-03-02T15:46:10.029Z,7.78
2023-03-02T15:48:37.498Z,11.02
2023-03-02T15:51:06.974Z,8.27
2023-03-02T15:53:37.894Z,7.55
2023-03-02T15:56:12.129Z,13.13
2023-03-02T15:58:39.266Z,12.05
2023-03-02T16:01:10.815Z,7.72
2023-03-02T16:04:07.173Z,10.80
2023-03-02T16:06:34.064Z,9.53
2023-03-02T16:09:00.921Z,15.35
2023-03-02T16:11:27.720Z,10.20
2023-03-02T16:13:54.564Z,9.88
2023-03-02T16:16:22.079Z,11.02
2023-03-02T16:18:58.688Z,9.05
2023-03-02T16:21:28.364Z,12.70
2023-03-02T16:24:03.291Z,8.73
2023-03-02T16:26:32.206Z,11.73
2023-03-02T16:28:59.779Z,10.68
2023-03-02T16:31:28.051Z,8.98
2023-03-02T16:33:56.017Z,9.05
2023-03-02T16:36:22.907Z,9.93
2023-03-02T16:38:49.886Z,10.48
2023-03-02T16:41:22.233Z,9.38
2023-03-02T16:43:54.961Z,11.82
2023-03-02T16:46:23.201Z,9.30
2023-03-02T16:48:50.244Z,8.25
2023-03-02T16:51:18.801Z,10.15
2023-03-02T16:53:45.919Z,11.15
2023-03-02T16:56:13.179Z,9.52
2023-03-02T16:58:41.422Z,11.57
2023-03-02T17:01:10.834Z,10.10
2023-03-02T17:03:37.882Z,12.77
2023-03-02T17:06:09.668Z,11.50
2023-03-02T17:08:37.092Z,14.25
2023-03-02T17:11:04.122Z,14.65
2023-03-02T17:13:30.975Z,12.95
2023-03-02T17:15:58.256Z,13.38
2023-03-02T17:18:27.557Z,14.25
2023-03-02T17:20:55.985Z,12.30
2023-03-02T17:23:23.392Z,15.68
2023-03-02T17:25:50.229Z,14.73
2023-03-02T17:28:17.309Z,15.32
2023-03-02T17:30:44.809Z,13.70
2023-03-02T17:33:11.902Z,12.20
2023-03-02T17:35:38.873Z,11.20
2023-03-02T17:38:05.980Z,11.15
2023-03-02T17:40:32.947Z,10.85
2023-03-02T17:42:59.699Z,11.95
2023-03-02T17:45:30.691Z,12.35
2023-03-02T17:47:58.957Z,10.38
2023-03-02T17:50:26.961Z,13.82
2023-03-02T17:52:54.195Z,11.90
2023-03-02T17:55:21.192Z,10.15
2023-03-02T17:57:48.040Z,11.68
2023-03-02T18:00:19.467Z,11.63
2023-03-02T18:02:46.342Z,9.18
2023-03-02T18:05:13.498Z,11.38
2023-03-02T18:07:40.323Z,12.70
2023-03-02T18:10:07.996Z,10.25
2023-03-02T18:12:35.407Z,10.57
2023-03-02T18:15:02.649Z,11.75
2023-03-02T18:17:30.277Z,9.43
2023-03-02T18:19:57.130Z,9.43
2023-03-02T18:22:24.003Z,8.77
2023-03-02T18:24:51.950Z,8.63
2023-03-02T18:27:19.127Z,10.68
2023-03-02T18:29:46.069Z,9.00
2023-03-02T18:32:13.059Z,10.32
2023-03-02T18:34:40.247Z,9.75
2023-03-02T18:37:07.479Z,10.15
2023-03-02T18:39:34.563Z,12.85
2023-03-02T18:42:01.527Z,12.63
2023-03-02T18:44:31.096Z,15.80
2023-03-02T18:46:58.761Z,15.23
2023-03-02T18:49:26.021Z,16.25
2023-03-02T18:51:55.090Z,13.60
2023-03-02T18:54:22.556Z,14.15
2023-03-02T18:56:49.466Z,13.65
2023-03-02T18:59:17.775Z,11.43
2023-03-02T19:01:46.183Z,10.70
2023-03-02T19:04:14.361Z,12.88
2023-03-02T19:06:43.113Z,13.05
2023-03-02T19:09:10.908Z,13.95
2023-03-02T19:11:37.960Z,12.43
2023-03-02T19:14:05.015Z,13.55
2023-03-02T19:16:32.373Z,11.23
2023-03-02T19:18:59.423Z,8.82
2023-03-02T19:21:26.289Z,10.65
2023-03-02T19:23:53.180Z,12.18
2023-03-02T19:26:20.077Z,11.93
2023-03-02T19:28:46.951Z,11.88
2023-03-02T19:31:13.984Z,11.38
2023-03-02T19:33:42.277Z,10.40
2023-03-02T19:36:09.964Z,12.75
2023-03-02T19:38:41.469Z,12.57
2023-03-02T19:41:11.687Z,12.25
2023-03-02T19:43:40.456Z,11.60
2023-03-02T19:46:10.746Z,11.60
2023-03-02T19:48:38.307Z,12.55
2023-03-02T19:51:06.675Z,12.20
2023-03-02T19:53:34.153Z,12.52
2023-03-02T19:56:14.949Z,13.80
2023-03-02T19:58:54.033Z,11.77
2023-03-02T20:01:25.833Z,12.43
2023-03-02T20:03:56.973Z,12.15
2023-03-02T20:06:32.684Z,10.65
2023-03-02T20:09:02.658Z,9.32
2023-03-02T20:11:31.319Z,8.95
2023-03-02T20:14:02.251Z,11.40
2023-03-02T20:16:31.567Z,8.57
2023-03-02T20:19:00.701Z,9.18
2023-03-02T20:21:28.450Z,10.35
2023-03-02T20:23:55.289Z,11.98
2023-03-02T20:26:24.424Z,10.93
2023-03-02T20:28:53.175Z,12.40
2023-03-02T20:31:20.384Z,13.27
2023-03-02T20:33:50.094Z,12.88
2023-03-02T20:36:22.081Z,13.20
2023-03-02T20:38:54.383Z,14.93
2023-03-02T20:41:21.546Z,13.80
2023-03-02T20:43:48.428Z,12.93
2023-03-02T20:46:22.744Z,13.18
2023-03-02T20:48:49.816Z,13.90
2023-03-02T20:51:16.695Z,14.32
2023-03-02T20:53:45.563Z,12.68
2023-03-02T20:56:13.913Z,12.93
2023-03-02T20:58:43.301Z,17.00
2023-03-02T21:01:11.918Z,12.20
2023-03-02T21:03:40.025Z,11.52
2023-03-02T21:06:07.798Z,12.35
2023-03-02T21:08:38.963Z,9.65
2023-03-02T21:11:11.293Z,9.70
2023-03-02T21:13:39.166Z,11.77
2023-03-02T21:16:09.385Z,11.68
2023-03-02T21:18:36.243Z,9.98
2023-03-02T21:21:03.400Z,9.27
2023-03-02T21:23:30.342Z,10.27
2023-03-02T21:25:57.426Z,8.15
2023-03-02T21:28:24.202Z,10.50
2023-03-02T21:30:51.021Z,10.73
2023-03-02T21:33:17.824Z,10.45
2023-03-02T21:35:46.283Z,9.65
2023-03-02T21:38:13.194Z,10.38
2023-03-02T21:40:45.810Z,9.52
2023-03-02T21:43:14.744Z,9.68
2023-03-02T21:45:42.021Z,9.90
2023-03-02T21:48:09.047Z,9.02
2023-03-02T21:50:38.393Z,11.77
2023-03-02T21:53:06.019Z,9.43
2023-03-02T21:55:33.511Z,10.38
2023-03-02T21:58:00.330Z,9.07
2023-03-02T22:00:30.181Z,9.80
2023-03-02T22:02:57.229Z,9.20
2023-03-02T22:05:24.333Z,9.38
2023-03-02T22:07:51.362Z,9.15
2023-03-02T22:10:32.519Z,8.93
2023-03-02T22:13:26.856Z,10.02
2023-03-02T22:16:06.154Z,9.07
2023-03-02T22:18:32.972Z,10.40
2023-03-02T22:20:59.697Z,10.13
2023-03-02T22:23:27.019Z,11.90
2023-03-02T22:25:59.878Z,10.43
2023-03-02T22:28:28.468Z,12.82
2023-03-02T22:31:00.373Z,10.75
2023-03-02T22:33:29.387Z,9.25
2023-03-02T22:36:18.523Z,8.18
2023-03-02T22:38:45.258Z,10.80
2023-03-02T22:41:18.384Z,9.18
2023-03-02T22:43:46.120Z,10.75
2023-03-02T22:46:15.452Z,10.98
2023-03-02T22:48:44.746Z,9.40
2023-03-02T22:51:20.095Z,9.85
2023-03-02T22:53:52.707Z,10.30
2023-03-02T22:56:35.736Z,9.55
2023-03-02T22:59:24.835Z,10.32
2023-03-02T23:02:00.447Z,10.73
2023-03-02T23:04:35.316Z,11.57
2023-03-02T23:07:11.302Z,9.52
2023-03-02T23:09:38.063Z,10.70
2023-03-02T23:12:28.398Z,10.65
2023-03-02T23:14:57.205Z,11.07
2023-03-02T23:17:31.573Z,10.15
2023-03-02T23:19:58.366Z,9.57
2023-03-02T23:22:28.498Z,10.00
2023-03-02T23:24:56.267Z,10.43
2023-03-02T23:27:24.338Z,10.43
2023-03-02T23:29:54.314Z,9.65
2023-03-02T23:32:21.396Z,11.05
2023-03-02T23:34:48.295Z,10.35
2023-03-02T23:37:15.037Z,10.30
2023-03-02T23:39:42.559Z,9.75
2023-03-02T23:42:10.059Z,10.27
2023-03-02T23:44:36.819Z,12.35
2023-03-02T23:47:03.624Z,11.68
2023-03-02T23:49:30.507Z,10.65
2023-03-02T23:51:57.256Z,10.60
2023-03-02T23:54:24.010Z,10.13
2023-03-02T23:56:50.734Z,10.88
2023-03-02T23:59:17.497Z,10.40
